createdAt,value
2018-11-03T00:01:43.920Z,14.20
2018-11-03T00:04:19.633Z,14.20
2018-11-03T00:06:55.969Z,14.10
2018-11-03T00:09:32.106Z,14.10
2018-11-03T00:12:08.078Z,14.10
2018-11-03T00:14:44.531Z,14.10
2018-11-03T00:17:20.506Z,14.10
2018-11-03T00:19:55.935Z,14.10
2018-11-03T00:22:31.500Z,14.20
2018-11-03T00:25:08.481Z,14.20
2018-11-03T00:27:45.643Z,14.20
2018-11-03T00:30:21.619Z,14.20
2018-11-03T00:32:57.049Z,14.10
2018-11-03T00:35:32.415Z,14.20
2018-11-03T00:38:08.338Z,14.20
2018-11-03T00:40:43.755Z,14.20
2018-11-03T00:43:19.695Z,14.20
2018-11-03T00:45:55.484Z,14.30
2018-11-03T00:48:30.697Z,14.30
2018-11-03T00:51:06.445Z,14.20
2018-11-03T00:53:42.328Z,14.10
2018-11-03T00:56:17.792Z,14.20
2018-11-03T00:58:53.481Z,14.10
2018-11-03T01:01:29.385Z,14.10
2018-11-03T01:04:05.263Z,14.10
2018-11-03T01:06:40.417Z,14.00
2018-11-03T01:09:16.193Z,14.00
2018-11-03T01:11:51.771Z,14.00
2018-11-03T01:14:27.489Z,14.00
2018-11-03T01:17:03.009Z,14.00
2018-11-03T01:19:38.240Z,14.00
2018-11-03T01:22:14.356Z,14.00
2018-11-03T01:24:50.031Z,14.00
2018-11-03T01:27:25.459Z,14.00
2018-11-03T01:30:01.408Z,14.00
2018-11-03T01:32:36.648Z,14.00
2018-11-03T01:35:12.646Z,14.00
2018-11-03T01:37:48.940Z,14.00
2018-11-03T01:40:24.540Z,13.90
2018-11-03T01:42:59.926Z,13.80
2018-11-03T01:45:35.770Z,13.80
2018-11-03T01:48:11.521Z,13.80
2018-11-03T01:50:46.849Z,13.80
2018-11-03T01:53:22.497Z,13.80
2018-11-03T01:55:58.228Z,13.80
2018-11-03T01:58:33.880Z,14.00
2018-11-03T02:01:09.538Z,13.90
2018-11-03T02:03:45.018Z,13.90
2018-11-03T02:06:21.900Z,13.80
2018-11-03T02:08:57.480Z,13.70
2018-11-03T02:11:33.864Z,13.70
2018-11-03T02:14:09.741Z,13.70
2018-11-03T02:16:45.697Z,13.70
2018-11-03T02:19:21.179Z,13.80
2018-11-03T02:21:57.081Z,13.70
2018-11-03T02:24:32.833Z,13.70
2018-11-03T02:27:08.696Z,13.60
2018-11-03T02:29:44.853Z,13.60
2018-11-03T02:32:20.621Z,13.50
2018-11-03T02:34:55.881Z,13.50
2018-11-03T02:37:31.790Z,13.50
2018-11-03T02:40:08.864Z,13.50
2018-11-03T02:42:45.065Z,13.40
2018-11-03T02:45:20.664Z,13.40
2018-11-03T02:47:56.173Z,13.40
2018-11-03T02:50:31.565Z,13.30
2018-11-03T02:53:07.112Z,13.30
2018-11-03T02:55:42.877Z,13.30
2018-11-03T02:58:18.057Z,13.30
2018-11-03T03:00:54.007Z,13.30
2018-11-03T03:03:29.588Z,13.30
2018-11-03T03:06:05.724Z,13.20
2018-11-03T03:08:41.218Z,13.20
2018-11-03T03:11:17.044Z,13.20
2018-11-03T03:13:52.880Z,13.20
2018-11-03T03:16:28.536Z,13.20
2018-11-03T03:19:03.685Z,13.10
2018-11-03T03:21:39.816Z,13.10
2018-11-03T03:24:15.381Z,13.20
2018-11-03T03:26:50.743Z,13.20
2018-11-03T03:29:26.559Z,13.20
2018-11-03T03:32:02.049Z,13.20
2018-11-03T03:34:38.047Z,13.20
2018-11-03T03:37:13.684Z,13.20
2018-11-03T03:39:49.304Z,13.20
2018-11-03T03:42:24.773Z,13.20
2018-11-03T03:45:00.705Z,13.20
2018-11-03T03:47:36.580Z,13.30
2018-11-03T03:50:12.375Z,13.30
2018-11-03T03:52:48.853Z,13.30
2018-11-03T03:55:24.727Z,13.20
2018-11-03T03:58:00.211Z,13.20
2018-11-03T04:00:35.988Z,13.30
2018-11-03T04:03:11.352Z,13.20
2018-11-03T04:05:47.123Z,13.20
2018-11-03T04:08:23.022Z,13.20
2018-11-03T04:10:58.876Z,13.20
2018-11-03T04:13:34.076Z,13.20
2018-11-03T04:16:09.889Z,13.10
2018-11-03T04:18:45.499Z,13.10
2018-11-03T04:21:28.422Z,13.10
2018-11-03T04:24:04.042Z,13.10
2018-11-03T04:26:40.521Z,13.10
2018-11-03T04:29:16.522Z,13.10
2018-11-03T04:31:51.953Z,13.10
2018-11-03T04:34:27.645Z,13.00
2018-11-03T04:37:03.334Z,13.10
2018-11-03T04:39:39.312Z,13.10
2018-11-03T04:42:15.000Z,13.10
2018-11-03T04:44:50.840Z,13.10
2018-11-03T04:47:26.309Z,13.10
2018-11-03T04:50:02.090Z,13.10
2018-11-03T04:52:37.788Z,13.00
2018-11-03T04:55:13.512Z,13.00
2018-11-03T04:57:48.995Z,13.00
2018-11-03T05:00:24.948Z,13.00
2018-11-03T05:03:00.408Z,13.00
2018-11-03T05:05:36.868Z,13.00
2018-11-03T05:08:12.892Z,12.90
2018-11-03T05:10:48.366Z,12.90
2018-11-03T05:13:23.998Z,12.90
2018-11-03T05:15:59.814Z,12.90
2018-11-03T05:18:35.696Z,12.90
2018-11-03T05:21:11.341Z,12.90
2018-11-03T05:23:46.849Z,12.90
2018-11-03T05:26:22.513Z,12.80
2018-11-03T05:28:58.221Z,12.80
2018-11-03T05:31:33.790Z,12.80
2018-11-03T05:34:09.849Z,12.90
2018-11-03T05:36:45.221Z,12.80
2018-11-03T05:39:20.888Z,12.80
2018-11-03T05:41:56.385Z,12.80
2018-11-03T05:44:32.394Z,12.80
2018-11-03T05:47:08.031Z,12.90
2018-11-03T05:49:43.541Z,12.80
2018-11-03T05:52:19.521Z,12.80
2018-11-03T05:54:56.326Z,12.80
2018-11-03T05:57:31.689Z,12.80
2018-11-03T06:00:08.697Z,12.80
2018-11-03T06:02:43.982Z,12.80
2018-11-03T06:05:19.715Z,12.70
2018-11-03T06:07:55.889Z,12.70
2018-11-03T06:10:31.857Z,12.70
2018-11-03T06:13:07.590Z,12.70
2018-11-03T06:15:43.227Z,12.70
2018-11-03T06:18:18.695Z,12.70
2018-11-03T06:20:54.565Z,12.80
2018-11-03T06:23:30.201Z,12.70
2018-11-03T06:26:05.976Z,12.90
2018-11-03T06:28:41.137Z,12.90
2018-11-03T06:31:17.217Z,12.80
2018-11-03T06:33:52.816Z,12.80
2018-11-03T06:36:28.192Z,12.80
2018-11-03T06:39:05.094Z,12.80
2018-11-03T06:41:40.620Z,12.90
2018-11-03T06:44:16.256Z,12.90
2018-11-03T06:46:52.132Z,12.90
2018-11-03T06:49:27.866Z,12.90
2018-11-03T06:52:03.763Z,12.90
2018-11-03T06:54:39.205Z,12.80
2018-11-03T06:57:15.031Z,12.80
2018-11-03T06:59:50.774Z,12.70
2018-11-03T07:02:27.057Z,12.80
2018-11-03T07:05:03.094Z,12.90
2018-11-03T07:07:38.801Z,12.90
2018-11-03T07:10:14.641Z,12.90
2018-11-03T07:12:53.884Z,12.90
2018-11-03T07:15:30.528Z,13.00
2018-11-03T07:18:06.973Z,13.00
2018-11-03T07:20:43.211Z,13.00
2018-11-03T07:23:19.617Z,13.00
2018-11-03T07:25:55.208Z,13.00
2018-11-03T07:28:31.125Z,13.00
2018-11-03T07:31:06.604Z,13.10
2018-11-03T07:33:42.072Z,13.10
2018-11-03T07:36:17.584Z,13.10
2018-11-03T07:38:53.553Z,13.10
2018-11-03T07:41:28.956Z,13.20
2018-11-03T07:44:05.567Z,13.20
2018-11-03T07:46:41.418Z,13.30
2018-11-03T07:49:18.488Z,13.30
2018-11-03T07:51:53.799Z,13.40
2018-11-03T07:54:29.479Z,13.40
2018-11-03T07:57:05.071Z,13.60
2018-11-03T07:59:40.936Z,13.70
2018-11-03T08:02:16.292Z,13.80
2018-11-03T08:04:52.207Z,13.80
2018-11-03T08:07:27.858Z,14.10
2018-11-03T08:10:03.196Z,13.90
2018-11-03T08:12:38.944Z,14.00
2018-11-03T08:15:14.521Z,13.10
2018-11-03T08:17:50.196Z,14.10
2018-11-03T08:20:25.771Z,14.30
2018-11-03T08:23:01.268Z,14.30
2018-11-03T08:25:37.004Z,14.30
2018-11-03T08:28:12.497Z,14.30
2018-11-03T08:30:48.293Z,14.30
2018-11-03T08:33:23.815Z,14.40
2018-11-03T08:35:59.465Z,14.40
2018-11-03T08:38:35.236Z,14.50
2018-11-03T08:41:10.911Z,14.50
2018-11-03T08:43:46.556Z,14.60
2018-11-03T08:46:21.795Z,14.60
2018-11-03T08:48:57.594Z,14.80
2018-11-03T08:51:32.944Z,14.60
2018-11-03T08:54:08.912Z,14.90
2018-11-03T08:56:44.606Z,14.90
2018-11-03T08:59:20.308Z,14.70
2018-11-03T09:01:56.189Z,14.70
2018-11-03T09:04:31.368Z,14.80
2018-11-03T09:07:07.063Z,15.00
2018-11-03T09:09:42.661Z,15.20
2018-11-03T09:12:18.491Z,15.20
2018-11-03T09:14:54.044Z,15.20
2018-11-03T09:17:29.594Z,15.20
2018-11-03T09:20:05.592Z,15.20
2018-11-03T09:22:41.073Z,15.40
2018-11-03T09:25:17.336Z,15.40
2018-11-03T09:27:53.054Z,15.50
2018-11-03T09:30:28.885Z,15.60
2018-11-03T09:33:04.741Z,15.60
2018-11-03T09:35:40.335Z,15.80
2018-11-03T09:38:15.755Z,15.80
2018-11-03T09:40:51.637Z,15.90
2018-11-03T09:43:27.104Z,15.80
2018-11-03T09:46:02.989Z,15.80
2018-11-03T09:48:38.708Z,15.70
2018-11-03T09:51:14.540Z,15.70
2018-11-03T09:53:50.169Z,15.70
2018-11-03T09:56:26.034Z,15.70
2018-11-03T09:59:01.689Z,15.80
2018-11-03T10:01:37.201Z,15.90
2018-11-03T10:04:12.788Z,16.20
2018-11-03T10:06:48.602Z,16.30
2018-11-03T10:09:24.648Z,16.40
2018-11-03T10:12:00.117Z,16.40
2018-11-03T10:14:36.116Z,16.30
2018-11-03T10:17:11.896Z,16.30
2018-11-03T10:19:47.738Z,16.30
2018-11-03T10:22:23.352Z,16.30
2018-11-03T10:24:59.900Z,16.20
2018-11-03T10:27:36.061Z,16.20
2018-11-03T10:30:13.420Z,16.30
2018-11-03T10:32:48.625Z,16.50
2018-11-03T10:35:25.702Z,16.70
2018-11-03T10:38:01.059Z,16.80
2018-11-03T10:40:36.784Z,17.00
2018-11-03T10:43:12.774Z,17.00
2018-11-03T10:45:48.121Z,17.10
2018-11-03T10:48:23.888Z,17.10
2018-11-03T10:50:59.550Z,17.10
2018-11-03T10:53:35.861Z,17.10
2018-11-03T10:56:12.261Z,17.20
2018-11-03T10:58:48.202Z,17.20
2018-11-03T11:02:28.068Z,17.20
2018-11-03T11:05:08.568Z,17.20
2018-11-03T11:07:49.548Z,17.10
2018-11-03T11:10:31.070Z,16.90
2018-11-03T11:13:24.302Z,16.90
2018-11-03T11:15:59.990Z,18.80
2018-11-03T11:18:35.782Z,17.10
2018-11-03T11:21:12.727Z,17.30
2018-11-03T11:23:51.090Z,17.40
2018-11-03T11:26:29.997Z,17.40
2018-11-03T11:29:08.148Z,17.30
2018-11-03T11:31:45.880Z,17.30
2018-11-03T11:34:23.023Z,17.40
2018-11-03T11:36:59.188Z,17.40
2018-11-03T11:39:38.045Z,17.50
2018-11-03T11:42:13.992Z,17.50
2018-11-03T11:44:50.620Z,17.50
2018-11-03T11:47:26.917Z,17.50
2018-11-03T11:50:03.543Z,17.50
2018-11-03T11:52:39.951Z,17.50
2018-11-03T11:55:15.807Z,17.60
2018-11-03T11:57:51.085Z,17.50
2018-11-03T12:00:26.614Z,17.50
2018-11-03T12:03:02.354Z,17.50
2018-11-03T12:05:38.401Z,17.60
2018-11-03T12:08:13.962Z,17.60
2018-11-03T12:10:49.781Z,17.50
2018-11-03T12:13:25.324Z,17.50
2018-11-03T12:16:01.162Z,17.50
2018-11-03T12:18:36.458Z,16.80
2018-11-03T12:21:12.329Z,17.60
2018-11-03T12:23:47.831Z,17.60
2018-11-03T12:26:23.490Z,17.50
2018-11-03T12:28:59.381Z,17.30
2018-11-03T12:31:34.597Z,17.40
2018-11-03T12:34:10.717Z,17.60
2018-11-03T12:36:46.252Z,17.80
2018-11-03T12:39:21.851Z,17.80
2018-11-03T12:41:57.928Z,17.80
2018-11-03T12:44:35.357Z,18.00
2018-11-03T12:47:11.498Z,18.20
2018-11-03T12:49:47.743Z,18.20
2018-11-03T12:52:23.342Z,17.90
2018-11-03T12:54:59.189Z,18.10
2018-11-03T12:57:38.409Z,18.20
2018-11-03T13:00:15.770Z,18.10
2018-11-03T13:02:52.374Z,18.20
2018-11-03T13:05:28.520Z,18.10
2018-11-03T13:08:03.930Z,18.20
2018-11-03T13:10:40.002Z,18.40
2018-11-03T13:13:15.512Z,18.40
2018-11-03T13:15:51.079Z,18.50
2018-11-03T13:18:27.516Z,18.50
2018-11-03T13:21:03.715Z,18.50
2018-11-03T13:23:39.413Z,18.50
2018-11-03T13:26:15.136Z,18.60
2018-11-03T13:28:50.887Z,19.20
2018-11-03T13:31:26.270Z,21.00
2018-11-03T13:34:02.089Z,22.10
2018-11-03T13:36:37.592Z,22.80
2018-11-03T13:39:13.474Z,22.60
2018-11-03T13:41:49.100Z,21.40
2018-11-03T13:44:24.964Z,21.40
2018-11-03T13:47:00.731Z,21.30
2018-11-03T13:49:36.920Z,21.20
2018-11-03T13:52:12.950Z,21.00
2018-11-03T13:54:48.721Z,20.80
2018-11-03T13:57:24.314Z,20.50
2018-11-03T14:00:00.112Z,20.40
2018-11-03T14:02:36.067Z,20.20
2018-11-03T14:05:11.707Z,20.00
2018-11-03T14:07:47.185Z,19.90
2018-11-03T14:10:22.354Z,19.90
2018-11-03T14:12:58.494Z,19.80
2018-11-03T14:15:34.207Z,19.60
2018-11-03T14:18:09.912Z,19.60
2018-11-03T14:20:45.467Z,19.60
2018-11-03T14:23:21.091Z,19.50
2018-11-03T14:25:56.735Z,19.50
2018-11-03T14:28:32.753Z,19.50
2018-11-03T14:31:08.377Z,19.60
2018-11-03T14:33:44.481Z,19.60
2018-11-03T14:36:20.831Z,19.60
2018-11-03T14:38:56.480Z,20.00
2018-11-03T14:41:31.925Z,20.40
2018-11-03T14:44:07.689Z,20.80
2018-11-03T14:46:43.785Z,20.70
2018-11-03T14:49:19.223Z,20.20
2018-11-03T14:51:54.605Z,19.70
2018-11-03T14:54:30.369Z,19.50
2018-11-03T14:57:06.240Z,19.20
2018-11-03T14:59:41.997Z,19.20
2018-11-03T15:02:17.514Z,19.20
2018-11-03T15:04:53.318Z,18.80
2018-11-03T15:07:30.037Z,18.80
2018-11-03T15:10:06.416Z,18.80
2018-11-03T15:12:43.457Z,18.90
2018-11-03T15:15:18.618Z,19.00
2018-11-03T15:17:54.276Z,18.80
2018-11-03T15:20:30.272Z,18.60
2018-11-03T15:23:05.846Z,18.70
2018-11-03T15:25:41.418Z,18.80
2018-11-03T15:28:17.056Z,18.50
2018-11-03T15:30:53.073Z,18.40
2018-11-03T15:33:28.736Z,18.40
2018-11-03T15:36:04.054Z,18.30
2018-11-03T15:38:39.906Z,18.30
2018-11-03T15:41:16.750Z,18.30
2018-11-03T15:43:52.414Z,18.40
2018-11-03T15:46:28.165Z,18.30
2018-11-03T15:49:03.931Z,18.20
2018-11-03T15:51:39.678Z,18.10
2018-11-03T15:54:15.623Z,18.20
2018-11-03T15:56:51.797Z,18.30
2018-11-03T15:59:27.715Z,18.20
2018-11-03T16:02:03.337Z,18.20
2018-11-03T16:04:38.765Z,18.00
2018-11-03T16:07:14.813Z,17.80
2018-11-03T16:09:50.496Z,17.70
2018-11-03T16:12:26.135Z,18.80
2018-11-03T16:15:01.820Z,17.70
2018-11-03T16:17:38.323Z,17.80
2018-11-03T16:20:15.818Z,17.70
2018-11-03T16:22:53.402Z,17.60
2018-11-03T16:25:30.878Z,17.40
2018-11-03T16:28:06.560Z,17.30
2018-11-03T16:30:42.100Z,17.20
2018-11-03T16:33:17.867Z,17.20
2018-11-03T16:35:53.369Z,17.10
2018-11-03T16:38:29.323Z,17.10
2018-11-03T16:41:04.836Z,17.00
2018-11-03T16:43:41.646Z,17.00
2018-11-03T16:46:18.933Z,16.90
2018-11-03T16:48:56.407Z,17.00
2018-11-03T16:51:33.022Z,16.90
2018-11-03T16:54:09.697Z,16.90
2018-11-03T16:56:48.422Z,16.80
2018-11-03T16:59:26.339Z,16.80
2018-11-03T17:02:04.554Z,16.70
2018-11-03T17:04:40.102Z,16.70
2018-11-03T17:07:15.861Z,16.60
2018-11-03T17:09:51.365Z,16.60
2018-11-03T17:12:27.229Z,16.60
2018-11-03T17:15:02.527Z,16.50
2018-11-03T17:17:38.431Z,16.50
2018-11-03T17:20:14.310Z,16.50
2018-11-03T17:22:50.001Z,16.40
2018-11-03T17:25:25.603Z,16.40
2018-11-03T17:28:01.324Z,16.40
2018-11-03T17:30:37.109Z,16.40
2018-11-03T17:33:12.989Z,16.50
2018-11-03T17:35:48.509Z,16.60
2018-11-03T17:38:27.813Z,16.60
2018-11-03T17:41:06.115Z,16.60
2018-11-03T17:43:44.721Z,16.60
2018-11-03T17:46:21.017Z,16.70
2018-11-03T17:48:57.273Z,16.90
2018-11-03T17:51:36.258Z,17.10
2018-11-03T17:54:13.838Z,17.10
2018-11-03T17:56:51.777Z,17.10
2018-11-03T17:59:28.715Z,17.10
2018-11-03T18:02:05.724Z,17.10
2018-11-03T18:04:43.279Z,17.10
2018-11-03T18:07:21.466Z,17.00
2018-11-03T18:10:00.941Z,17.10
2018-11-03T18:12:39.764Z,17.00
2018-11-03T18:15:18.754Z,17.00
2018-11-03T18:17:56.344Z,16.90
2018-11-03T18:20:34.291Z,17.00
2018-11-03T18:23:11.901Z,16.90
2018-11-03T18:25:48.785Z,16.90
2018-11-03T18:28:26.711Z,16.90
2018-11-03T18:31:04.679Z,16.90
2018-11-03T18:33:42.118Z,17.00
2018-11-03T18:36:18.674Z,16.90
2018-11-03T18:38:56.584Z,17.00
2018-11-03T18:41:35.249Z,17.00
2018-11-03T18:44:15.249Z,17.00
2018-11-03T18:46:51.800Z,17.00
2018-11-03T18:49:29.273Z,17.00
2018-11-03T18:52:06.762Z,17.10
2018-11-03T18:54:43.857Z,17.10
2018-11-03T18:57:20.211Z,17.10
2018-11-03T18:59:57.119Z,17.00
2018-11-03T19:02:35.634Z,17.00
2018-11-03T19:05:13.377Z,16.90
2018-11-03T19:07:52.503Z,17.00
2018-11-03T19:10:31.022Z,17.00
2018-11-03T19:13:08.948Z,16.90
2018-11-03T19:15:46.724Z,16.90
2018-11-03T19:18:24.281Z,16.90
2018-11-03T19:21:02.199Z,16.90
2018-11-03T19:23:40.250Z,16.80
2018-11-03T19:26:18.836Z,16.90
2018-11-03T19:28:58.113Z,17.00
2018-11-03T19:31:36.376Z,17.00
2018-11-03T19:34:14.453Z,17.00
2018-11-03T19:36:51.813Z,16.90
2018-11-03T19:39:28.361Z,16.90
2018-11-03T19:42:04.523Z,16.80
2018-11-03T19:44:42.723Z,16.80
2018-11-03T19:47:20.276Z,16.70
2018-11-03T19:49:58.344Z,16.70
2018-11-03T19:52:35.209Z,16.70
2018-11-03T19:55:12.233Z,16.80
2018-11-03T19:57:49.816Z,16.70
2018-11-03T20:00:28.180Z,16.70
2018-11-03T20:03:04.615Z,16.80
2018-11-03T20:05:42.471Z,16.80
2018-11-03T20:08:19.718Z,16.80
2018-11-03T20:10:56.351Z,16.70
2018-11-03T20:13:34.534Z,16.70
2018-11-03T20:16:12.857Z,16.70
2018-11-03T20:19:15.034Z,16.60
2018-11-03T20:21:45.992Z,16.60
2018-11-03T20:24:18.574Z,16.70
2018-11-03T20:26:52.773Z,16.60
2018-11-03T20:29:26.089Z,16.50
2018-11-03T20:31:57.751Z,16.40
2018-11-03T20:34:29.117Z,16.40
2018-11-03T20:37:00.900Z,16.40
2018-11-03T20:39:34.385Z,16.40
2018-11-03T20:42:05.750Z,16.40
2018-11-03T20:44:40.552Z,16.40
2018-11-03T20:47:13.599Z,16.40
2018-11-03T20:49:47.905Z,16.40
2018-11-03T20:52:20.480Z,16.40
2018-11-03T20:54:52.267Z,16.40
2018-11-03T20:57:25.558Z,16.30
2018-11-03T20:59:58.006Z,16.30
2018-11-03T21:02:30.432Z,16.10
2018-11-03T21:05:03.662Z,16.10
2018-11-03T21:07:38.053Z,16.00
2018-11-03T21:10:09.006Z,15.80
2018-11-03T21:12:42.638Z,15.70
2018-11-03T21:15:13.596Z,15.50
2018-11-03T21:17:45.638Z,15.50
2018-11-03T21:20:19.576Z,15.40
2018-11-03T21:22:51.967Z,15.40
2018-11-03T21:25:28.313Z,15.50
2018-11-03T21:27:58.864Z,15.50
2018-11-03T21:30:30.596Z,15.60
2018-11-03T21:33:03.305Z,15.50
2018-11-03T21:35:35.236Z,15.50
2018-11-03T21:38:06.506Z,15.60
2018-11-03T21:40:38.232Z,15.70
2018-11-03T21:43:10.601Z,15.90
2018-11-03T21:45:40.988Z,15.90
2018-11-03T21:48:13.773Z,15.80
2018-11-03T21:50:48.799Z,15.80
2018-11-03T21:53:20.742Z,15.70
2018-11-03T21:55:51.413Z,15.60
2018-11-03T21:58:22.742Z,15.60
2018-11-03T22:00:59.561Z,15.60
2018-11-03T22:03:32.757Z,15.60
2018-11-03T22:06:03.712Z,15.70
2018-11-03T22:08:34.473Z,15.70
2018-11-03T22:11:07.521Z,15.70
2018-11-03T22:13:39.561Z,15.70
2018-11-03T22:16:10.569Z,15.60
2018-11-03T22:18:44.388Z,15.60
2018-11-03T22:21:16.928Z,15.50
2018-11-03T22:23:52.625Z,15.50
2018-11-03T22:26:26.767Z,15.50
2018-11-03T22:28:59.935Z,15.70
2018-11-03T22:31:30.625Z,15.70
2018-11-03T22:34:02.536Z,15.70
2018-11-03T22:36:37.592Z,15.60
2018-11-03T22:39:10.606Z,15.60
2018-11-03T22:41:41.804Z,15.60
2018-11-03T22:44:12.899Z,15.50
2018-11-03T22:46:47.147Z,15.60
2018-11-03T22:49:19.209Z,15.60
2018-11-03T22:51:52.774Z,15.70
2018-11-03T22:54:26.741Z,15.80
2018-11-03T22:56:58.802Z,15.80
2018-11-03T22:59:30.014Z,15.80
2018-11-03T23:02:03.929Z,15.80
2018-11-03T23:04:37.836Z,15.90
2018-11-03T23:07:10.046Z,15.90
2018-11-03T23:09:43.417Z,15.90
2018-11-03T23:12:14.951Z,15.90
2018-11-03T23:14:48.239Z,15.90
2018-11-03T23:17:21.489Z,15.90
2018-11-03T23:19:53.915Z,15.90
2018-11-03T23:22:27.119Z,15.90
2018-11-03T23:24:59.388Z,15.90
2018-11-03T23:27:29.414Z,15.90
2018-11-03T23:30:00.783Z,15.80
2018-11-03T23:32:32.771Z,15.90
2018-11-03T23:35:04.837Z,15.80
2018-11-03T23:37:36.056Z,15.80
2018-11-03T23:40:12.849Z,15.90
2018-11-03T23:42:44.665Z,15.80
2018-11-03T23:45:15.450Z,15.80
2018-11-03T23:47:47.316Z,15.80
2018-11-03T23:50:19.549Z,15.70
2018-11-03T23:52:52.102Z,15.70
2018-11-03T23:55:25.655Z,15.70
2018-11-03T23:57:56.434Z,15.60
